Time;durP1;ratioP1;P1;durP2;ratioP2;P2;SDS_P1;SDS_P2;PMS_P1;PMS_P2;Temp;Humidity;BMP_temperature;BMP_pressure;BME280_temperature;BME280_humidity;BME280_pressure;Samples;Min_cycle;Max_cycle;Signal;HPM_P1;HPM_P2
2023/04/27 00:02:03;;;;;;;;;;;12.40;70.50;;;;;;5016351;28;19952;-79
2023/04/27 00:04:29;;;;;;;;;;;12.40;70.70;;;;;;5021335;28;19944;-80
2023/04/27 00:06:56;;;;;;;;;;;12.40;70.70;;;;;;5013761;28;20024;-79
2023/04/27 00:09:24;;;;;;;;;;;12.40;70.70;;;;;;5020319;28;19929;-79
2023/04/27 00:11:50;;;;;;;;;;;12.40;70.80;;;;;;5017819;28;19936;-80
2023/04/27 00:14:17;;;;;;;;;;;12.30;70.80;;;;;;5016588;28;19937;-78
2023/04/27 00:16:43;;;;;;;;;;;12.30;70.90;;;;;;5016008;28;20165;-78
2023/04/27 00:19:10;;;;;;;;;;;12.30;71.00;;;;;;5020693;28;19929;-79
2023/04/27 00:21:36;;;;;;;;;;;12.30;70.90;;;;;;5022195;28;20137;-79
2023/04/27 00:24:03;;;;;;;;;;;12.20;71.20;;;;;;5018119;28;20368;-79
2023/04/27 00:26:31;;;;;;;;;;;12.20;71.30;;;;;;5019741;28;19929;-80
2023/04/27 00:28:57;;;;;;;;;;;12.20;71.40;;;;;;5020284;28;19933;-79
2023/04/27 00:31:24;;;;;;;;;;;12.10;71.30;;;;;;5019760;28;19929;-79
2023/04/27 00:33:50;;;;;;;;;;;12.10;71.30;;;;;;5016380;28;20040;-79
2023/04/27 00:36:17;;;;;;;;;;;12.10;71.30;;;;;;5019142;28;19933;-79
2023/04/27 00:38:44;;;;;;;;;;;12.00;71.30;;;;;;5020710;28;20356;-79
2023/04/27 00:41:10;;;;;;;;;;;12.00;71.50;;;;;;5022873;28;20449;-79
2023/04/27 00:43:43;;;;;;;;;;;12.00;71.60;;;;;;5019005;28;19936;-80
2023/04/27 00:46:10;;;;;;;;;;;11.90;72.30;;;;;;5018748;28;20012;-78
2023/04/27 00:48:37;;;;;;;;;;;11.90;71.60;;;;;;5018942;28;20015;-79
2023/04/27 00:51:03;;;;;;;;;;;11.90;71.50;;;;;;5010659;28;19932;-79
2023/04/27 00:53:31;;;;;;;;;;;11.90;71.50;;;;;;5019146;28;19936;-79
2023/04/27 00:55:57;;;;;;;;;;;11.80;71.60;;;;;;5020564;28;19929;-79
2023/04/27 00:58:24;;;;;;;;;;;11.80;71.70;;;;;;5019222;28;21060;-79
2023/04/27 01:00:52;;;;;;;;;;;11.80;71.60;;;;;;5017739;28;20036;-79
2023/04/27 01:03:19;;;;;;;;;;;11.70;71.50;;;;;;5022414;28;19972;-79
2023/04/27 01:05:46;;;;;;;;;;;11.70;71.50;;;;;;5026037;28;20019;-79
2023/04/27 01:08:12;;;;;;;;;;;11.70;71.70;;;;;;5017769;28;19940;-79
2023/04/27 01:10:39;;;;;;;;;;;11.60;71.50;;;;;;5020891;28;19929;-79
2023/04/27 01:13:05;;;;;;;;;;;11.60;71.60;;;;;;5021759;28;19929;-79
2023/04/27 01:15:32;;;;;;;;;;;11.60;71.70;;;;;;5015660;28;19935;-79
2023/04/27 01:18:00;;;;;;;;;;;11.60;71.80;;;;;;5021187;28;19929;-79
2023/04/27 01:20:29;;;;;;;;;;;11.50;71.70;;;;;;5023195;28;20448;-79
2023/04/27 01:22:55;;;;;;;;;;;11.50;71.60;;;;;;5018743;28;19936;-79
2023/04/27 01:25:23;;;;;;;;;;;11.50;71.60;;;;;;5022301;28;20003;-79
2023/04/27 01:27:50;;;;;;;;;;;11.40;71.50;;;;;;5019896;28;19939;-78
2023/04/27 01:30:17;;;;;;;;;;;11.40;71.50;;;;;;5022679;28;20032;-78
2023/04/27 01:32:43;;;;;;;;;;;11.40;71.60;;;;;;5020651;28;19929;-79
2023/04/27 01:35:10;;;;;;;;;;;11.30;71.40;;;;;;5022095;28;20004;-79
2023/04/27 01:37:37;;;;;;;;;;;11.30;71.40;;;;;;5021071;28;19929;-78
2023/04/27 01:40:05;;;;;;;;;;;11.30;71.50;;;;;;5024392;28;19929;-79
2023/04/27 01:42:33;;;;;;;;;;;11.30;71.50;;;;;;5020775;28;20064;-78
2023/04/27 01:45:00;;;;;;;;;;;11.20;71.40;;;;;;5018544;28;19933;-79
2023/04/27 01:47:26;;;;;;;;;;;11.20;71.50;;;;;;5019239;28;20027;-80
2023/04/27 01:49:53;;;;;;;;;;;11.20;71.60;;;;;;5022589;28;19936;-79
2023/04/27 01:52:19;;;;;;;;;;;11.10;71.60;;;;;;5017243;28;20446;-78
2023/04/27 01:54:46;;;;;;;;;;;11.10;71.60;;;;;;5018931;28;19929;-79
2023/04/27 01:57:13;;;;;;;;;;;11.00;71.50;;;;;;5019802;28;19940;-78
2023/04/27 01:59:40;;;;;;;;;;;11.00;71.60;;;;;;5016612;28;19929;-79
2023/04/27 02:02:07;;;;;;;;;;;11.00;71.60;;;;;;5019804;28;19929;-79
2023/04/27 02:04:35;;;;;;;;;;;10.90;71.60;;;;;;5019237;28;19929;-79
2023/04/27 02:07:01;;;;;;;;;;;11.00;71.70;;;;;;5019189;28;19928;-78
2023/04/27 02:09:28;;;;;;;;;;;10.90;71.70;;;;;;5019159;28;19937;-79
2023/04/27 02:11:54;;;;;;;;;;;10.90;71.80;;;;;;5016202;28;19937;-80
2023/04/27 02:14:21;;;;;;;;;;;10.90;71.90;;;;;;5017206;28;19929;-79
2023/04/27 02:16:49;;;;;;;;;;;10.90;71.90;;;;;;5016512;28;19929;-78
2023/04/27 02:19:16;;;;;;;;;;;10.80;72.00;;;;;;5017633;28;19933;-78
2023/04/27 02:21:42;;;;;;;;;;;10.80;72.00;;;;;;5024446;28;20493;-79
2023/04/27 02:24:09;;;;;;;;;;;10.80;72.10;;;;;;5019294;28;19952;-79
2023/04/27 02:26:36;;;;;;;;;;;10.80;72.20;;;;;;5017069;28;19933;-80
2023/04/27 02:29:02;;;;;;;;;;;10.80;72.20;;;;;;5017096;28;19933;-79
2023/04/27 02:31:29;;;;;;;;;;;10.70;72.20;;;;;;5018713;28;19936;-79
2023/04/27 02:33:57;;;;;;;;;;;10.70;72.30;;;;;;5020977;28;19937;-79
2023/04/27 02:36:23;;;;;;;;;;;10.70;72.40;;;;;;5019709;28;19929;-78
2023/04/27 02:38:50;;;;;;;;;;;10.70;72.50;;;;;;5020255;28;19944;-80
2023/04/27 02:41:16;;;;;;;;;;;10.70;72.50;;;;;;5023744;28;19929;-79
2023/04/27 02:43:43;;;;;;;;;;;10.60;72.60;;;;;;5020368;28;20027;-79
2023/04/27 02:46:09;;;;;;;;;;;10.60;72.60;;;;;;5018705;28;20103;-78
2023/04/27 02:48:36;;;;;;;;;;;10.60;72.70;;;;;;5022919;28;19929;-79
2023/04/27 02:51:04;;;;;;;;;;;10.50;72.70;;;;;;5024186;28;19932;-79
2023/04/27 02:53:31;;;;;;;;;;;10.60;72.90;;;;;;5019259;28;19929;-79
2023/04/27 02:55:58;;;;;;;;;;;10.50;73.00;;;;;;5018525;28;20345;-79
2023/04/27 02:58:24;;;;;;;;;;;10.50;73.00;;;;;;5016804;28;20789;-79
2023/04/27 03:00:53;;;;;;;;;;;10.50;73.10;;;;;;5023425;28;19940;-78
2023/04/27 03:03:20;;;;;;;;;;;10.50;73.20;;;;;;5020923;28;19940;-79
2023/04/27 03:05:46;;;;;;;;;;;10.50;73.20;;;;;;5019065;28;19929;-79
2023/04/27 03:08:14;;;;;;;;;;;10.40;73.30;;;;;;5022688;28;19928;-79
2023/04/27 03:10:41;;;;;;;;;;;10.40;73.30;;;;;;5017749;28;19960;-79
2023/04/27 03:13:07;;;;;;;;;;;10.40;73.40;;;;;;5018459;28;19940;-79
2023/04/27 03:15:34;;;;;;;;;;;10.40;73.50;;;;;;5018153;28;19933;-79
2023/04/27 03:18:01;;;;;;;;;;;10.40;73.50;;;;;;5021166;28;19940;-80
2023/04/27 03:20:27;;;;;;;;;;;10.40;73.60;;;;;;5018620;28;19929;-78
2023/04/27 03:22:54;;;;;;;;;;;10.40;73.60;;;;;;5013654;28;19999;-79
2023/04/27 03:25:22;;;;;;;;;;;10.40;73.70;;;;;;5015937;28;20585;-79
2023/04/27 03:27:49;;;;;;;;;;;10.30;73.70;;;;;;5016897;28;20798;-80
2023/04/27 03:30:16;;;;;;;;;;;10.30;74.50;;;;;;5017450;28;20621;-78
2023/04/27 03:32:42;;;;;;;;;;;10.30;73.90;;;;;;5019262;28;20448;-80
2023/04/27 03:35:09;;;;;;;;;;;10.30;73.90;;;;;;5018287;28;19937;-78
2023/04/27 03:37:36;;;;;;;;;;;10.30;74.00;;;;;;5014832;28;20048;-79
2023/04/27 03:40:06;;;;;;;;;;;10.30;74.10;;;;;;5019519;28;20244;-80
2023/04/27 03:42:33;;;;;;;;;;;10.20;74.80;;;;;;5020079;28;20452;-80
2023/04/27 03:45:00;;;;;;;;;;;10.20;74.90;;;;;;5020466;28;19928;-79
2023/04/27 03:47:27;;;;;;;;;;;10.20;74.20;;;;;;5015933;28;19933;-80
2023/04/27 03:49:53;;;;;;;;;;;10.30;74.30;;;;;;5019711;28;19941;-78
2023/04/27 03:52:20;;;;;;;;;;;10.20;74.30;;;;;;5022315;28;19933;-79
2023/04/27 03:54:46;;;;;;;;;;;10.20;74.40;;;;;;5023471;28;19933;-79
2023/04/27 03:57:13;;;;;;;;;;;10.20;74.40;;;;;;5016894;28;19929;-79
2023/04/27 03:59:41;;;;;;;;;;;10.20;74.60;;;;;;5014179;28;19929;-79
2023/04/27 04:02:08;;;;;;;;;;;10.20;74.60;;;;;;5020882;28;19991;-80
2023/04/27 04:04:35;;;;;;;;;;;10.10;74.50;;;;;;5020348;28;19929;-79
2023/04/27 04:07:01;;;;;;;;;;;10.10;74.60;;;;;;5019279;28;19937;-78
2023/04/27 04:09:28;;;;;;;;;;;10.10;74.60;;;;;;5021847;28;19937;-79
2023/04/27 04:11:54;;;;;;;;;;;10.10;74.70;;;;;;5020947;28;20452;-79
2023/04/27 04:14:21;;;;;;;;;;;10.10;74.70;;;;;;5019460;28;19937;-79
2023/04/27 04:16:49;;;;;;;;;;;10.10;74.80;;;;;;5017708;28;20479;-79
2023/04/27 04:19:15;;;;;;;;;;;10.10;74.90;;;;;;5012396;28;19929;-79
2023/04/27 04:21:42;;;;;;;;;;;10.10;75.00;;;;;;5020379;28;19929;-79
2023/04/27 04:24:09;;;;;;;;;;;10.00;75.00;;;;;;5016888;28;20436;-79
2023/04/27 04:26:37;;;;;;;;;;;10.00;75.00;;;;;;5018935;28;19933;-79
2023/04/27 04:29:04;;;;;;;;;;;10.00;75.10;;;;;;5019055;28;19936;-78
2023/04/27 04:31:32;;;;;;;;;;;10.00;75.10;;;;;;5021150;28;19929;-79
2023/04/27 04:34:02;;;;;;;;;;;10.00;75.20;;;;;;5025531;28;19929;-79
2023/04/27 04:36:29;;;;;;;;;;;10.00;75.20;;;;;;5017002;28;19929;-79
2023/04/27 04:38:57;;;;;;;;;;;10.00;75.30;;;;;;5024939;28;19932;-79
2023/04/27 04:41:24;;;;;;;;;;;10.00;75.40;;;;;;5023850;28;19929;-78
2023/04/27 04:43:50;;;;;;;;;;;9.90;75.30;;;;;;5022481;28;19972;-79
2023/04/27 04:46:18;;;;;;;;;;;10.00;75.50;;;;;;5021538;28;19952;-79
2023/04/27 04:48:45;;;;;;;;;;;9.90;75.50;;;;;;5021602;28;19965;-79
2023/04/27 04:51:13;;;;;;;;;;;9.90;75.50;;;;;;5015139;28;19929;-78
2023/04/27 04:53:39;;;;;;;;;;;9.90;75.60;;;;;;5018741;28;19929;-79
2023/04/27 04:56:09;;;;;;;;;;;9.90;75.60;;;;;;5018045;28;19929;-78
2023/04/27 04:58:36;;;;;;;;;;;9.90;75.70;;;;;;5023224;28;20063;-80
2023/04/27 05:01:02;;;;;;;;;;;9.90;75.70;;;;;;5023803;28;19929;-78
2023/04/27 05:03:29;;;;;;;;;;;9.90;75.70;;;;;;5013657;28;19933;-79
2023/04/27 05:05:55;;;;;;;;;;;9.90;75.80;;;;;;5016035;28;19951;-79
2023/04/27 05:08:23;;;;;;;;;;;9.90;75.90;;;;;;5016266;28;19929;-79
2023/04/27 05:10:50;;;;;;;;;;;9.90;75.90;;;;;;5016507;28;20502;-79
2023/04/27 05:13:17;;;;;;;;;;;9.80;76.00;;;;;;5015103;28;19933;-79
2023/04/27 05:15:43;;;;;;;;;;;9.80;76.00;;;;;;5016917;28;19929;-79
2023/04/27 05:18:10;;;;;;;;;;;9.80;76.10;;;;;;5023203;28;19951;-79
2023/04/27 05:20:37;;;;;;;;;;;9.80;76.10;;;;;;5019207;28;19937;-80
2023/04/27 05:23:03;;;;;;;;;;;9.80;76.10;;;;;;5019826;28;19929;-79
2023/04/27 05:25:31;;;;;;;;;;;9.80;76.20;;;;;;5017775;28;19933;-79
2023/04/27 05:27:58;;;;;;;;;;;9.80;76.10;;;;;;5019370;28;19964;-78
2023/04/27 05:30:25;;;;;;;;;;;9.80;76.10;;;;;;5018594;28;20356;-80
2023/04/27 05:32:52;;;;;;;;;;;9.80;76.20;;;;;;5019595;28;19940;-80
2023/04/27 05:35:19;;;;;;;;;;;9.80;76.10;;;;;;5024187;28;19928;-79
2023/04/27 05:37:46;;;;;;;;;;;9.80;76.10;;;;;;5015511;28;19940;-79
2023/04/27 05:40:14;;;;;;;;;;;9.70;76.10;;;;;;5020286;28;19932;-79
2023/04/27 05:42:42;;;;;;;;;;;9.80;76.10;;;;;;5017592;28;20570;-79
2023/04/27 05:45:09;;;;;;;;;;;9.80;76.10;;;;;;5049856;23;20681;-81
2023/04/27 05:47:36;;;;;;;;;;;9.80;76.10;;;;;;5040228;28;19939;-81
2023/04/27 05:50:03;;;;;;;;;;;9.70;76.10;;;;;;5042477;28;19929;-80
2023/04/27 05:52:30;;;;;;;;;;;9.70;76.00;;;;;;5041550;28;20106;-79
2023/04/27 05:54:57;;;;;;;;;;;9.70;76.10;;;;;;5037165;28;19929;-82
2023/04/27 05:57:24;;;;;;;;;;;9.70;76.00;;;;;;5035809;28;19932;-80
2023/04/27 05:59:52;;;;;;;;;;;9.70;75.90;;;;;;5040271;28;19932;-80
2023/04/27 06:02:19;;;;;;;;;;;9.70;75.90;;;;;;5041144;28;19935;-81
2023/04/27 06:04:49;;;;;;;;;;;9.80;75.90;;;;;;5041393;28;19939;-79
2023/04/27 06:07:15;;;;;;;;;;;9.70;75.80;;;;;;5036095;28;19936;-79
2023/04/27 06:09:42;;;;;;;;;;;9.70;75.80;;;;;;5040274;28;19939;-82
2023/04/27 06:12:09;;;;;;;;;;;9.80;75.70;;;;;;5034636;28;19933;-79
2023/04/27 06:14:36;;;;;;;;;;;9.70;75.60;;;;;;5035938;28;19933;-82
2023/04/27 06:17:04;;;;;;;;;;;9.80;75.70;;;;;;5036165;28;19939;-79
2023/04/27 06:19:31;;;;;;;;;;;9.80;75.60;;;;;;5038285;28;19959;-81
2023/04/27 06:21:57;;;;;;;;;;;9.80;75.60;;;;;;5038609;28;19929;-80
2023/04/27 06:24:24;;;;;;;;;;;9.70;75.50;;;;;;5037707;28;19929;-80
2023/04/27 06:26:50;;;;;;;;;;;9.80;75.50;;;;;;5038359;28;20646;-78
2023/04/27 06:29:17;;;;;;;;;;;9.70;75.30;;;;;;5037896;28;19970;-81
2023/04/27 06:31:44;;;;;;;;;;;9.80;75.30;;;;;;5034165;28;20578;-81
2023/04/27 06:34:11;;;;;;;;;;;9.80;75.20;;;;;;5041821;28;19929;-79
2023/04/27 06:36:38;;;;;;;;;;;9.80;75.20;;;;;;5039452;28;19929;-82
2023/04/27 06:39:05;;;;;;;;;;;9.80;75.10;;;;;;5041571;28;19932;-79
2023/04/27 06:41:32;;;;;;;;;;;9.80;75.00;;;;;;5034707;28;19964;-82
2023/04/27 06:43:59;;;;;;;;;;;9.80;75.00;;;;;;5039848;28;19966;-80
2023/04/27 06:46:26;;;;;;;;;;;9.80;74.90;;;;;;5039288;28;20015;-80
2023/04/27 06:48:52;;;;;;;;;;;9.80;74.80;;;;;;5040078;28;19929;-79
2023/04/27 06:51:20;;;;;;;;;;;9.80;74.80;;;;;;5037503;28;20071;-80
2023/04/27 06:53:47;;;;;;;;;;;9.80;74.70;;;;;;5035723;28;19929;-79
2023/04/27 06:56:13;;;;;;;;;;;9.80;74.70;;;;;;5038284;28;19929;-80
2023/04/27 06:58:40;;;;;;;;;;;9.80;74.70;;;;;;5039012;28;19933;-81
2023/04/27 07:01:06;;;;;;;;;;;9.90;74.70;;;;;;5036418;28;19933;-81
2023/04/27 07:03:34;;;;;;;;;;;9.80;74.70;;;;;;5042164;28;19935;-80
2023/04/27 07:06:00;;;;;;;;;;;9.90;74.70;;;;;;5042408;28;19933;-80
2023/04/27 07:08:28;;;;;;;;;;;9.90;74.80;;;;;;5039962;28;19932;-80
2023/04/27 07:10:56;;;;;;;;;;;9.90;74.70;;;;;;5039601;28;19929;-81
2023/04/27 07:13:22;;;;;;;;;;;9.90;74.80;;;;;;5038612;28;19940;-79
2023/04/27 07:15:53;;;;;;;;;;;9.90;74.70;;;;;;5033912;28;19998;-80
2023/04/27 07:18:20;;;;;;;;;;;9.90;74.70;;;;;;5036735;28;19935;-81
2023/04/27 07:20:46;;;;;;;;;;;9.90;74.80;;;;;;5037809;28;19952;-81
2023/04/27 07:23:13;;;;;;;;;;;10.00;74.90;;;;;;5040762;28;19929;-80
2023/04/27 07:25:42;;;;;;;;;;;10.00;74.90;;;;;;5034686;28;19932;-80
2023/04/27 07:28:08;;;;;;;;;;;10.00;74.90;;;;;;5041279;28;19933;-79
2023/04/27 07:30:35;;;;;;;;;;;10.00;74.90;;;;;;5043053;28;19933;-80
2023/04/27 07:33:02;;;;;;;;;;;10.00;74.90;;;;;;5042006;28;19928;-83
2023/04/27 07:35:29;;;;;;;;;;;10.00;75.00;;;;;;5042267;28;19964;-82
2023/04/27 07:37:55;;;;;;;;;;;10.00;75.00;;;;;;5041093;28;19933;-80
2023/04/27 07:40:23;;;;;;;;;;;10.00;75.00;;;;;;5046094;28;20664;-79
2023/04/27 07:42:51;;;;;;;;;;;10.10;75.20;;;;;;5039980;28;19925;-79
2023/04/27 07:45:17;;;;;;;;;;;10.10;75.50;;;;;;5044189;28;20321;-80
2023/04/27 07:47:45;;;;;;;;;;;10.10;75.50;;;;;;5040901;28;19929;-79
2023/04/27 07:50:13;;;;;;;;;;;10.10;75.50;;;;;;5041159;28;19932;-80
2023/04/27 07:52:39;;;;;;;;;;;10.10;75.60;;;;;;5039364;28;19936;-83
2023/04/27 07:55:07;;;;;;;;;;;10.10;75.60;;;;;;5043533;28;19971;-82
2023/04/27 07:57:33;;;;;;;;;;;10.10;75.70;;;;;;5039305;28;20338;-80
2023/04/27 08:00:04;;;;;;;;;;;10.20;75.80;;;;;;5045772;28;19929;-81
2023/04/27 08:02:33;;;;;;;;;;;10.10;75.60;;;;;;5039378;28;19924;-81
2023/04/27 08:05:01;;;;;;;;;;;10.20;75.60;;;;;;5040437;28;19933;-80
2023/04/27 08:07:27;;;;;;;;;;;10.20;75.70;;;;;;5044223;28;20556;-80
2023/04/27 08:09:54;;;;;;;;;;;10.20;75.70;;;;;;5042996;28;19929;-81
2023/04/27 08:12:21;;;;;;;;;;;10.20;75.70;;;;;;5040013;28;19929;-79
2023/04/27 08:14:47;;;;;;;;;;;10.30;75.70;;;;;;5041313;28;19936;-81
2023/04/27 08:17:16;;;;;;;;;;;10.30;75.70;;;;;;5041111;28;19939;-80
2023/04/27 08:19:42;;;;;;;;;;;10.30;75.60;;;;;;5041865;28;19968;-81
2023/04/27 08:22:09;;;;;;;;;;;10.30;75.50;;;;;;5041082;28;19933;-79
2023/04/27 08:24:36;;;;;;;;;;;10.40;75.50;;;;;;5039966;28;19955;-81
2023/04/27 08:27:03;;;;;;;;;;;10.40;75.50;;;;;;5038799;28;19929;-80
2023/04/27 08:29:29;;;;;;;;;;;10.40;75.40;;;;;;5043041;28;19968;-80
2023/04/27 08:31:58;;;;;;;;;;;10.40;75.30;;;;;;5035791;28;20018;-79
2023/04/27 08:34:26;;;;;;;;;;;10.50;75.50;;;;;;5043810;28;22175;-80
2023/04/27 08:36:52;;;;;;;;;;;10.50;75.40;;;;;;5040540;28;19929;-79
2023/04/27 08:39:19;;;;;;;;;;;10.50;75.40;;;;;;5039622;28;20020;-80
2023/04/27 08:41:46;;;;;;;;;;;10.60;75.40;;;;;;5041203;28;19933;-79
2023/04/27 08:44:12;;;;;;;;;;;10.60;75.40;;;;;;5042654;28;19928;-80
2023/04/27 08:46:39;;;;;;;;;;;10.60;75.50;;;;;;5038695;28;19939;-82
2023/04/27 08:49:06;;;;;;;;;;;10.70;75.50;;;;;;5036793;28;19935;-80
2023/04/27 08:51:34;;;;;;;;;;;10.70;75.40;;;;;;5037590;28;19929;-78
2023/04/27 08:54:00;;;;;;;;;;;10.80;75.30;;;;;;5045411;28;19979;-80
2023/04/27 08:56:28;;;;;;;;;;;10.80;75.10;;;;;;5030794;28;19929;-77
2023/04/27 08:58:55;;;;;;;;;;;10.90;75.10;;;;;;5032918;28;19935;-80
2023/04/27 09:01:22;;;;;;;;;;;10.90;75.00;;;;;;5033659;28;19929;-77
2023/04/27 09:03:49;;;;;;;;;;;11.00;74.80;;;;;;5034174;28;20331;-76
2023/04/27 09:06:15;;;;;;;;;;;11.00;74.50;;;;;;5035489;28;19935;-76
2023/04/27 09:08:44;;;;;;;;;;;11.10;74.40;;;;;;5033816;28;20040;-77
2023/04/27 09:11:11;;;;;;;;;;;11.10;74.90;;;;;;5033666;28;20295;-77
2023/04/27 09:13:38;;;;;;;;;;;11.20;73.90;;;;;;5035005;28;19925;-77
2023/04/27 09:16:05;;;;;;;;;;;11.20;73.70;;;;;;5035581;28;19983;-77
2023/04/27 09:18:34;;;;;;;;;;;11.30;73.60;;;;;;5035361;28;19936;-79
2023/04/27 09:21:00;;;;;;;;;;;11.30;73.30;;;;;;5041367;28;19925;-78
2023/04/27 09:23:27;;;;;;;;;;;11.40;73.80;;;;;;5042115;28;20311;-77
2023/04/27 09:25:55;;;;;;;;;;;11.40;72.70;;;;;;5039454;28;20021;-81
2023/04/27 09:28:22;;;;;;;;;;;11.50;71.90;;;;;;5037746;28;20008;-79
2023/04/27 09:30:53;;;;;;;;;;;11.60;71.90;;;;;;5039813;28;19940;-77
2023/04/27 09:33:23;;;;;;;;;;;11.60;71.70;;;;;;5038240;28;20013;-78
2023/04/27 09:35:50;;;;;;;;;;;11.60;71.50;;;;;;5041388;28;20390;-78
2023/04/27 09:38:17;;;;;;;;;;;11.70;71.10;;;;;;5042514;28;19932;-78
2023/04/27 09:40:44;;;;;;;;;;;11.80;70.80;;;;;;5040687;28;19925;-78
2023/04/27 09:43:12;;;;;;;;;;;11.80;70.70;;;;;;5039398;28;20410;-79
2023/04/27 09:45:39;;;;;;;;;;;11.90;70.80;;;;;;5038039;28;19928;-77
2023/04/27 09:48:05;;;;;;;;;;;11.90;70.50;;;;;;5036682;28;19929;-78
2023/04/27 09:50:34;;;;;;;;;;;12.00;70.10;;;;;;5043559;28;20312;-78
2023/04/27 09:53:01;;;;;;;;;;;12.10;70.10;;;;;;5037587;28;19929;-77
2023/04/27 09:55:30;;;;;;;;;;;12.20;70.10;;;;;;5043090;28;20171;-77
2023/04/27 09:58:05;;;;;;;;;;;12.20;69.70;;;;;;5038387;28;19943;-78
2023/04/27 10:00:41;;;;;;;;;;;12.30;69.40;;;;;;5034647;28;19959;-77
2023/04/27 10:03:15;;;;;;;;;;;12.30;69.40;;;;;;5040289;28;19940;-79
2023/04/27 10:05:47;;;;;;;;;;;12.40;69.40;;;;;;5039669;28;19946;-77
2023/04/27 10:08:14;;;;;;;;;;;12.50;69.40;;;;;;5039682;28;19951;-78
2023/04/27 10:10:46;;;;;;;;;;;12.50;69.30;;;;;;5037450;28;19929;-77
2023/04/27 10:13:20;;;;;;;;;;;12.60;69.10;;;;;;5035399;28;20015;-77
2023/04/27 10:15:48;;;;;;;;;;;12.70;69.00;;;;;;5039993;28;20417;-79
2023/04/27 10:18:24;;;;;;;;;;;12.70;68.70;;;;;;5038708;28;20712;-77
2023/04/27 10:20:51;;;;;;;;;;;12.80;68.60;;;;;;5041083;28;19939;-77
2023/04/27 10:23:22;;;;;;;;;;;12.80;68.30;;;;;;5038644;28;19936;-78
2023/04/27 10:25:49;;;;;;;;;;;12.90;68.80;;;;;;5038731;28;19932;-79
2023/04/27 10:28:15;;;;;;;;;;;13.00;67.90;;;;;;5035884;28;19932;-77
2023/04/27 10:33:47;;;;;;;;;;;13.10;67.40;;;;;;5026954;28;19978;-78
2023/04/27 10:36:14;;;;;;;;;;;13.10;66.80;;;;;;5041864;28;19925;-78
2023/04/27 10:38:41;;;;;;;;;;;13.20;66.70;;;;;;5035743;28;19990;-76
2023/04/27 10:41:13;;;;;;;;;;;13.30;65.50;;;;;;5039504;28;19955;-79
2023/04/27 10:43:40;;;;;;;;;;;13.40;65.50;;;;;;5040047;28;20129;-78
2023/04/27 10:46:07;;;;;;;;;;;13.50;65.20;;;;;;5038456;28;20311;-77
2023/04/27 10:48:34;;;;;;;;;;;13.50;64.30;;;;;;5035823;28;20455;-79
2023/04/27 10:51:03;;;;;;;;;;;13.60;64.30;;;;;;5038433;28;19928;-78
2023/04/27 10:53:33;;;;;;;;;;;13.70;64.50;;;;;;5042260;28;19929;-77
2023/04/27 10:56:00;;;;;;;;;;;13.70;63.80;;;;;;5034811;28;19959;-78
2023/04/27 10:58:26;;;;;;;;;;;13.80;64.00;;;;;;5035116;28;19936;-78
2023/04/27 11:00:53;;;;;;;;;;;13.80;63.60;;;;;;5031552;28;20504;-79
2023/04/27 11:03:21;;;;;;;;;;;13.90;64.20;;;;;;5035221;28;19940;-77
2023/04/27 11:05:48;;;;;;;;;;;14.00;64.10;;;;;;5034106;28;19936;-78
2023/04/27 11:08:17;;;;;;;;;;;14.00;63.00;;;;;;5038211;28;19928;-79
2023/04/27 11:10:45;;;;;;;;;;;14.10;63.10;;;;;;5035452;28;19929;-77
2023/04/27 11:13:13;;;;;;;;;;;14.20;63.40;;;;;;5029901;28;19983;-77
2023/04/27 11:15:46;;;;;;;;;;;14.20;63.60;;;;;;5033335;28;20127;-77
2023/04/27 11:18:14;;;;;;;;;;;14.30;63.60;;;;;;5034304;28;19929;-77
2023/04/27 11:20:40;;;;;;;;;;;14.40;63.60;;;;;;5034966;28;19972;-77
2023/04/27 11:23:09;;;;;;;;;;;14.40;63.30;;;;;;5038466;28;19986;-77
2023/04/27 11:25:37;;;;;;;;;;;14.50;62.90;;;;;;5036762;28;20043;-79
2023/04/27 11:28:05;;;;;;;;;;;14.50;62.50;;;;;;5036741;28;19929;-78
2023/04/27 11:30:31;;;;;;;;;;;14.50;61.20;;;;;;5033061;28;19948;-78
2023/04/27 11:32:58;;;;;;;;;;;14.50;61.50;;;;;;5033609;28;19998;-80
2023/04/27 11:35:32;;;;;;;;;;;14.50;61.80;;;;;;5012822;28;19933;-78
2023/04/27 11:37:59;;;;;;;;;;;14.60;61.70;;;;;;5016724;28;19960;-79
2023/04/27 11:40:27;;;;;;;;;;;14.60;61.90;;;;;;5017287;28;19929;-79
2023/04/27 11:42:58;;;;;;;;;;;14.60;61.80;;;;;;5015910;28;19929;-80
2023/04/27 11:45:25;;;;;;;;;;;14.70;61.70;;;;;;5015018;28;20831;-78
2023/04/27 11:47:51;;;;;;;;;;;14.80;61.80;;;;;;5016454;28;19933;-79
2023/04/27 11:50:18;;;;;;;;;;;14.80;61.90;;;;;;5014354;28;21068;-78
2023/04/27 11:52:48;;;;;;;;;;;14.90;61.50;;;;;;5017775;28;19932;-79
2023/04/27 11:55:15;;;;;;;;;;;14.90;60.10;;;;;;5018787;28;22275;-76
2023/04/27 11:57:42;;;;;;;;;;;15.00;59.10;;;;;;5015889;28;19933;-72
2023/04/27 12:00:12;;;;;;;;;;;15.00;59.20;;;;;;5012563;28;19933;-72
2023/04/27 12:02:39;;;;;;;;;;;15.10;59.50;;;;;;5013734;28;19940;-71
2023/04/27 12:05:06;;;;;;;;;;;15.20;58.80;;;;;;5015775;28;19929;-72
2023/04/27 12:07:33;;;;;;;;;;;15.30;57.90;;;;;;5015206;28;19929;-72
2023/04/27 12:09:59;;;;;;;;;;;15.30;58.50;;;;;;5016066;28;20015;-72
2023/04/27 12:12:26;;;;;;;;;;;15.40;58.50;;;;;;5016243;28;20531;-72
2023/04/27 12:14:52;;;;;;;;;;;15.40;58.70;;;;;;5012943;28;19939;-73
2023/04/27 12:17:20;;;;;;;;;;;15.50;58.90;;;;;;5014873;28;19929;-72
2023/04/27 12:19:47;;;;;;;;;;;15.60;59.00;;;;;;5017728;28;20552;-71
2023/04/27 12:22:14;;;;;;;;;;;15.60;59.30;;;;;;5018420;28;19929;-72
2023/04/27 12:24:40;;;;;;;;;;;15.70;59.40;;;;;;5017184;28;19986;-72
2023/04/27 12:27:08;;;;;;;;;;;15.80;59.30;;;;;;5016170;28;20201;-72
2023/04/27 12:29:34;;;;;;;;;;;15.80;59.10;;;;;;5016371;28;20008;-72
2023/04/27 12:32:01;;;;;;;;;;;15.90;58.80;;;;;;5018345;28;20565;-72
2023/04/27 12:34:29;;;;;;;;;;;15.90;58.70;;;;;;5028938;28;19983;-72
2023/04/27 12:36:55;;;;;;;;;;;16.00;58.70;;;;;;5041622;28;20321;-72
2023/04/27 12:39:24;;;;;;;;;;;16.00;58.70;;;;;;5038546;28;19969;-72
2023/04/27 12:41:50;;;;;;;;;;;16.00;58.30;;;;;;5038655;28;19929;-72
2023/04/27 12:44:18;;;;;;;;;;;16.10;57.80;;;;;;5034288;28;19935;-72
2023/04/27 12:46:46;;;;;;;;;;;16.10;57.70;;;;;;5031338;28;20307;-72
2023/04/27 12:49:13;;;;;;;;;;;16.10;57.80;;;;;;5036837;28;19964;-72
2023/04/27 12:51:41;;;;;;;;;;;16.20;57.70;;;;;;5036542;28;20709;-72
2023/04/27 12:54:09;;;;;;;;;;;16.20;57.00;;;;;;5037710;28;19937;-72
2023/04/27 12:56:35;;;;;;;;;;;16.20;57.40;;;;;;5033326;28;19998;-83
2023/04/27 12:59:02;;;;;;;;;;;16.30;57.60;;;;;;5033921;28;20014;-72
2023/04/27 13:01:30;;;;;;;;;;;16.30;57.70;;;;;;5034911;28;20558;-72
2023/04/27 13:03:58;;;;;;;;;;;16.30;57.50;;;;;;5039259;28;19925;-72
2023/04/27 13:06:25;;;;;;;;;;;16.40;57.80;;;;;;5036210;28;19991;-72
2023/04/27 13:08:53;;;;;;;;;;;16.40;57.60;;;;;;5038164;28;19925;-72
2023/04/27 13:11:20;;;;;;;;;;;16.50;57.60;;;;;;5041128;28;19924;-72
2023/04/27 13:13:46;;;;;;;;;;;16.50;57.40;;;;;;5035274;28;19925;-73
2023/04/27 13:16:13;;;;;;;;;;;16.60;57.20;;;;;;5033159;28;19929;-72
2023/04/27 13:18:46;;;;;;;;;;;16.60;56.60;;;;;;5033144;28;19936;-72
2023/04/27 13:21:13;;;;;;;;;;;16.70;56.70;;;;;;5038769;28;20021;-72
2023/04/27 13:23:39;;;;;;;;;;;16.70;56.70;;;;;;5036777;28;19983;-72
2023/04/27 13:26:07;;;;;;;;;;;16.80;56.60;;;;;;5034614;28;19940;-72
2023/04/27 13:28:34;;;;;;;;;;;16.90;57.20;;;;;;5036329;28;20199;-73
2023/04/27 13:31:00;;;;;;;;;;;16.90;56.10;;;;;;5037625;28;20383;-72
2023/04/27 13:33:27;;;;;;;;;;;17.00;56.10;;;;;;5035864;28;19987;-72
2023/04/27 13:35:53;;;;;;;;;;;17.00;55.70;;;;;;5033850;28;19944;-72
2023/04/27 13:38:20;;;;;;;;;;;17.00;56.00;;;;;;5039712;28;20481;-72
2023/04/27 13:40:46;;;;;;;;;;;17.10;56.30;;;;;;5040775;28;19929;-72
2023/04/27 13:43:14;;;;;;;;;;;17.10;55.50;;;;;;5035892;28;19933;-72
2023/04/27 13:45:41;;;;;;;;;;;17.20;55.00;;;;;;5036500;28;19925;-72
2023/04/27 13:48:08;;;;;;;;;;;17.20;54.50;;;;;;5035488;28;19980;-72
2023/04/27 13:50:36;;;;;;;;;;;17.20;55.10;;;;;;5037161;28;21280;-72
2023/04/27 13:53:03;;;;;;;;;;;17.20;55.20;;;;;;5039162;28;20500;-72
2023/04/27 13:55:29;;;;;;;;;;;17.30;55.70;;;;;;5040266;28;19998;-72
2023/04/27 13:57:56;;;;;;;;;;;17.30;55.70;;;;;;5036384;28;19937;-72
2023/04/27 14:00:25;;;;;;;;;;;17.30;55.00;;;;;;5041584;28;19932;-72
2023/04/27 14:02:51;;;;;;;;;;;17.40;54.70;;;;;;5040215;28;19936;-72
2023/04/27 14:05:18;;;;;;;;;;;17.40;54.90;;;;;;5038913;28;19932;-72
2023/04/27 14:07:44;;;;;;;;;;;17.40;55.10;;;;;;5039024;28;19954;-72
2023/04/27 14:10:11;;;;;;;;;;;17.40;54.80;;;;;;5036894;28;20535;-73
2023/04/27 14:12:37;;;;;;;;;;;17.40;55.10;;;;;;5038030;28;20398;-73
2023/04/27 14:15:04;;;;;;;;;;;17.40;55.40;;;;;;5038668;28;19932;-72
2023/04/27 14:17:32;;;;;;;;;;;17.50;55.90;;;;;;5031412;28;19925;-72
2023/04/27 14:19:59;;;;;;;;;;;17.50;55.70;;;;;;5033589;28;19929;-72
2023/04/27 14:22:25;;;;;;;;;;;17.50;55.60;;;;;;5034049;28;22144;-72